• Join FlightAware (Why Join?)
  • Login
  • US Flag 
01:11PM EDT


 

Airport Tracker/Info


-or-


 

Live Flight TrackerFlight Track Log ✈ AIP2696 ✈ 04-Nov-2013 ✈ KGTF - KBIL

Flight Track Log - Related Links

Times and Time Zones

All times are in EST time to prevent confusion due to time zone crossing. See the AIP2696 flight status page for this flight to view local times or setup timezone preferences in your user account.

Time Position Orientation Groundspeed Altitude Reporting Facility
EST Latitude Longitude Course Direction KTS MPH feet Rate Location/Type
08:09PM 47.4219 -111.3828 123° Southeast 168 193 7,200  Level Salt Lake Center
08:10PM 47.3925 -111.3169 123° Southeast 190 219 8,300 1,140 Climbing Salt Lake Center
08:11PM 47.3653 -111.2478 120° Southeast 194 223 9,600 1,080 Climbing Salt Lake Center
08:12PM 47.3331 -111.1844 127° Southeast 194 223 10,600 960 Climbing Salt Lake Center
08:13PM 47.2942 -111.1028 125° Southeast 199 229 11,600 840 Climbing Salt Lake Center
08:14PM 47.2728 -111.0217 111° Southeast 209 241 12,400 780 Climbing Salt Lake Center
08:15PM 47.2458 -110.9425 117° Southeast 217 250 13,200 300 Climbing Salt Lake Center
08:16PM 47.2228 -110.8567 112° Southeast 220 253 13,100 -60 Descending Salt Lake Center
08:18PM 47.1856 -110.7722 123° Southeast 235 270 13,100 -60 Level Salt Lake Center
08:19PM 47.1358 -110.7036 137° Southeast 243 280 13,000 -120 Descending Salt Lake Center
08:20PM 47.0825 -110.6450 143° Southeast 243 280 12,900 -60 Descending Salt Lake Center
08:21PM 47.0194 -110.5725 142° Southeast 241 277 12,900 60 Level Salt Lake Center
08:22PM 46.9728 -110.5017 134° Southeast 241 277 13,100 60 Climbing Salt Lake Center
08:23PM 46.9314 -110.4272 129° Southeast 238 274 13,100  Level Salt Lake Center
08:24PM 46.8928 -110.3489 126° Southeast 237 273 13,200 -120 Climbing Salt Lake Center
08:25PM 46.8514 -110.2725 128° Southeast 239 275 12,900 -60 Descending Salt Lake Center
08:26PM 46.8053 -110.1994 133° Southeast 242 278 13,100 60 Climbing Salt Lake Center
08:27PM 46.7603 -110.1267 132° Southeast 242 278 13,100 -60 Level Salt Lake Center
08:28PM 46.7042 -110.0497 137° Southeast 241 277 13,000 -60 Descending Salt Lake Center
08:29PM 46.6586 -109.9808 134° Southeast 239 275 13,000  Level Salt Lake Center
08:30PM 46.6142 -109.9103 133° Southeast 237 273 13,100  Climbing Salt Lake Center
08:31PM 46.5739 -109.8339 127° Southeast 236 272 13,100 -60 Level Salt Lake Center
08:32PM 46.5275 -109.7656 135° Southeast 238 274 13,000 -60 Descending Salt Lake Center
08:33PM 46.4667 -109.6931 141° Southeast 237 273 13,000  Level Salt Lake Center
08:34PM 46.4214 -109.6253 134° Southeast 239 275 13,000  Level Salt Lake Center
08:35PM 46.3767 -109.5458 129° Southeast 238 274 13,000  Level Salt Lake Center
08:36PM 46.3350 -109.4719 129° Southeast 239 275 13,000 -120 Level Salt Lake Center
08:37PM 46.2894 -109.3922 130° Southeast 240 276 12,800 -480 Descending Salt Lake Center
08:38PM 46.2453 -109.3167 130° Southeast 250 288 12,100 -960 Descending Salt Lake Center
08:39PM 46.1942 -109.2331 131° Southeast 256 295 10,900 -1,080 Descending Salt Lake Center
08:40PM 46.1492 -109.1522 129° Southeast 261 300 10,000 -480 Descending Salt Lake Center
08:41PM 46.1083 -109.0675 125° Southeast 243 280 10,000  Level Salt Lake Center
08:42PM 46.0878 -108.9778 108° East 240 276 10,000  Level Salt Lake Center
08:43PM 46.0667 -108.8886 109° East 239 275 10,000  Level Salt Lake Center
08:44PM 46.0428 -108.7925 110° East 236 272 10,000  Level Salt Lake Center
08:45PM 46.0211 -108.7039 109° East 237 273 10,000 -360 Level Salt Lake Center
08:46PM 45.9961 -108.6053 110° East 244 281 9,300 -840 Descending Salt Lake Center
08:47PM 45.9725 -108.5089 109° East 257 296 8,300 -780 Descending Salt Lake Center
08:48PM 45.9464 -108.4231 114° Southeast 232 267 7,800 -300 Descending Salt Lake Center
08:49PM 45.9197 -108.3481 117° Southeast 194 223 7,800 -420 Level Salt Lake Center
08:50PM 45.8947 -108.2861 120° Southeast 184 212 7,000 -480 Descending Salt Lake Center
08:51PM 45.8581 -108.2414 140° Southeast 162 186 6,900 -360 Descending Salt Lake Center
08:52PM 45.8139 -108.2625 198° South 168 193 6,300 -480 Descending Salt Lake Center
08:54PM 45.7731 -108.2844 201° Southwest 158 182 6,000 -240 Descending Salt Lake Center
08:55PM 45.7547 -108.3342 242° Southwest 143 165 5,900 -300 Descending Salt Lake Center
08:56PM 45.7667 -108.3908 287° West 153 176 5,400 -600 Descending Salt Lake Center
08:57PM 45.7822 -108.4450 292° West 139 160 4,700 -780 Descending Salt Lake Center
08:58PM 45.7950 -108.4914 292° West 130 150 3,900 -840 Descending Salt Lake Center